createdAt,value
2018-11-05T00:00:11.732Z,6.437376
2018-11-05T00:00:24.378Z,6.437376
2018-11-05T00:00:36.888Z,8.04672
2018-11-05T00:00:49.383Z,8.04672
2018-11-05T00:01:01.904Z,8.04672
2018-11-05T00:01:14.355Z,6.437376
2018-11-05T00:01:26.841Z,6.437376
2018-11-05T00:01:39.373Z,6.437376
2018-11-05T00:01:51.845Z,8.04672
2018-11-05T00:02:04.474Z,6.437376
2018-11-05T00:02:16.945Z,9.656064
2018-11-05T00:02:29.454Z,9.656064
2018-11-05T00:02:41.885Z,9.656064
2018-11-05T00:02:54.355Z,9.656064
2018-11-05T00:03:06.795Z,4.828032
2018-11-05T00:03:19.215Z,6.437376
2018-11-05T00:03:31.664Z,8.04672
2018-11-05T00:03:44.104Z,8.04672
2018-11-05T00:03:56.525Z,8.04672
2018-11-05T00:04:09.096Z,1.609344
2018-11-05T00:04:21.619Z,1.609344
2018-11-05T00:04:34.095Z,1.609344
2018-11-05T00:04:46.656Z,6.437376
2018-11-05T00:04:59.073Z,6.437376
2018-11-05T00:05:11.525Z,4.828032
2018-11-05T00:05:23.997Z,8.04672
2018-11-05T00:05:36.448Z,8.04672
2018-11-05T00:05:49.014Z,8.04672
2018-11-05T00:06:01.512Z,8.04672
2018-11-05T00:06:13.971Z,4.828032
2018-11-05T00:06:26.368Z,6.437376
2018-11-05T00:06:38.784Z,8.04672
2018-11-05T00:06:51.187Z,8.04672
2018-11-05T00:07:03.596Z,8.04672
2018-11-05T00:07:16.164Z,6.437376
2018-11-05T00:07:28.629Z,9.656064
2018-11-05T00:07:41.076Z,9.656064
2018-11-05T00:07:53.493Z,9.656064
2018-11-05T00:08:05.915Z,8.04672
2018-11-05T00:08:18.733Z,8.04672
2018-11-05T00:08:31.201Z,8.04672
2018-11-05T00:08:43.675Z,8.04672
2018-11-05T00:08:56.229Z,8.04672
2018-11-05T00:09:08.758Z,3.218688
2018-11-05T00:09:21.176Z,8.04672
2018-11-05T00:09:33.623Z,9.656064
2018-11-05T00:09:46.078Z,9.656064
2018-11-05T00:09:58.594Z,9.656064
2018-11-05T00:10:11.040Z,8.04672
2018-11-05T00:10:23.515Z,8.04672
2018-11-05T00:10:35.970Z,11.265408
2018-11-05T00:10:48.493Z,11.265408
2018-11-05T00:11:00.955Z,11.265408
2018-11-05T00:11:13.400Z,8.04672
2018-11-05T00:11:25.807Z,8.04672
2018-11-05T00:11:38.239Z,8.04672
2018-11-05T00:11:50.729Z,8.04672
2018-11-05T00:12:03.246Z,8.04672
2018-11-05T00:12:15.665Z,6.437376
2018-11-05T00:12:28.056Z,6.437376
2018-11-05T00:12:40.480Z,6.437376
2018-11-05T00:12:52.894Z,6.437376
2018-11-05T00:13:05.309Z,1.609344
2018-11-05T00:13:17.829Z,1.609344
2018-11-05T00:13:30.315Z,1.609344
2018-11-05T00:13:42.796Z,3.218688
2018-11-05T00:13:55.410Z,4.828032
2018-11-05T00:14:07.878Z,4.828032
2018-11-05T00:14:20.302Z,4.828032
2018-11-05T00:14:32.782Z,4.828032
2018-11-05T00:14:45.185Z,4.828032
2018-11-05T00:14:57.613Z,6.437376
2018-11-05T00:15:10.045Z,3.218688
2018-11-05T00:15:22.594Z,12.874752
2018-11-05T00:15:35.047Z,12.874752
2018-11-05T00:15:47.530Z,12.874752
2018-11-05T00:15:59.907Z,12.874752
2018-11-05T00:16:12.573Z,3.218688
2018-11-05T00:16:24.958Z,3.218688
2018-11-05T00:16:37.421Z,3.218688
2018-11-05T00:16:49.897Z,3.218688
2018-11-05T00:17:02.365Z,4.828032
2018-11-05T00:17:14.862Z,3.218688
2018-11-05T00:17:27.325Z,3.218688
2018-11-05T00:17:39.745Z,3.218688
2018-11-05T00:17:52.145Z,3.218688
2018-11-05T00:18:04.684Z,6.437376
2018-11-05T00:18:17.221Z,6.437376
2018-11-05T00:18:29.682Z,8.04672
2018-11-05T00:18:42.139Z,8.04672
2018-11-05T00:18:54.621Z,8.04672
2018-11-05T00:19:07.084Z,3.218688
2018-11-05T00:19:19.488Z,3.218688
2018-11-05T00:19:31.917Z,8.04672
2018-11-05T00:19:44.396Z,8.04672
2018-11-05T00:19:56.892Z,8.04672
2018-11-05T00:20:09.313Z,3.218688
2018-11-05T00:20:21.719Z,3.218688
2018-11-05T00:20:34.137Z,3.218688
2018-11-05T00:20:46.527Z,3.218688
2018-11-05T00:20:58.929Z,3.218688
2018-11-05T00:21:11.397Z,0
2018-11-05T00:21:23.855Z,1.609344
2018-11-05T00:21:36.273Z,1.609344
2018-11-05T00:21:48.732Z,1.609344
2018-11-05T00:22:01.218Z,1.609344
2018-11-05T00:22:13.889Z,1.609344
2018-11-05T00:22:26.374Z,1.609344
2018-11-05T00:22:38.885Z,1.609344
2018-11-05T00:22:51.312Z,1.609344
2018-11-05T00:23:03.951Z,3.218688
2018-11-05T00:23:16.452Z,1.609344
2018-11-05T00:23:28.848Z,3.218688
2018-11-05T00:23:41.244Z,3.218688
2018-11-05T00:23:53.661Z,3.218688
2018-11-05T00:24:06.086Z,3.218688
2018-11-05T00:24:18.497Z,3.218688
2018-11-05T00:24:30.930Z,3.218688
2018-11-05T00:24:44.121Z,3.218688
2018-11-05T00:24:56.523Z,3.218688
2018-11-05T00:25:09.043Z,6.437376
2018-11-05T00:25:21.445Z,6.437376
2018-11-05T00:25:33.847Z,8.04672
2018-11-05T00:25:46.254Z,9.656064
2018-11-05T00:25:58.658Z,9.656064
2018-11-05T00:26:11.086Z,9.656064
2018-11-05T00:26:23.499Z,9.656064
2018-11-05T00:26:35.882Z,9.656064
2018-11-05T00:26:48.356Z,9.656064
2018-11-05T00:27:00.778Z,9.656064
2018-11-05T00:27:13.173Z,3.218688
2018-11-05T00:27:25.575Z,3.218688
2018-11-05T00:27:38.003Z,6.437376
2018-11-05T00:27:50.935Z,6.437376
2018-11-05T00:28:03.433Z,8.04672
2018-11-05T00:28:16.228Z,8.04672
2018-11-05T00:28:28.703Z,8.04672
2018-11-05T00:28:41.163Z,8.04672
2018-11-05T00:28:53.658Z,8.04672
2018-11-05T00:29:06.153Z,9.656064
2018-11-05T00:29:18.716Z,9.656064
2018-11-05T00:29:31.136Z,9.656064
2018-11-05T00:29:43.563Z,9.656064
2018-11-05T00:29:56.011Z,9.656064
2018-11-05T00:30:08.431Z,3.218688
2018-11-05T00:30:20.884Z,3.218688
2018-11-05T00:30:33.356Z,3.218688
2018-11-05T00:30:45.863Z,3.218688
2018-11-05T00:30:58.344Z,3.218688
2018-11-05T00:31:10.792Z,1.609344
2018-11-05T00:31:23.258Z,1.609344
2018-11-05T00:31:35.681Z,3.218688
2018-11-05T00:31:48.148Z,6.437376
2018-11-05T00:32:00.612Z,6.437376
2018-11-05T00:32:13.023Z,1.609344
2018-11-05T00:32:25.589Z,1.609344
2018-11-05T00:32:38.063Z,1.609344
2018-11-05T00:32:50.551Z,3.218688
2018-11-05T00:33:03.117Z,3.218688
2018-11-05T00:33:15.538Z,1.609344
2018-11-05T00:33:28.008Z,3.218688
2018-11-05T00:33:40.512Z,3.218688
2018-11-05T00:33:52.964Z,3.218688
2018-11-05T00:34:05.399Z,1.609344
2018-11-05T00:34:17.832Z,1.609344
2018-11-05T00:34:30.273Z,1.609344
2018-11-05T00:34:42.789Z,1.609344
2018-11-05T00:34:55.287Z,1.609344
2018-11-05T00:35:07.815Z,3.218688
2018-11-05T00:35:20.279Z,4.828032
2018-11-05T00:35:32.768Z,4.828032
2018-11-05T00:35:45.172Z,4.828032
2018-11-05T00:35:57.650Z,4.828032
2018-11-05T00:36:10.091Z,6.437376
2018-11-05T00:36:22.502Z,6.437376
2018-11-05T00:36:34.911Z,6.437376
2018-11-05T00:36:47.316Z,6.437376
2018-11-05T00:36:59.738Z,9.656064
2018-11-05T00:37:12.152Z,6.437376
2018-11-05T00:37:24.543Z,6.437376
2018-11-05T00:37:36.997Z,6.437376
2018-11-05T00:37:49.508Z,6.437376
2018-11-05T00:38:01.936Z,6.437376
2018-11-05T00:38:14.396Z,3.218688
2018-11-05T00:38:26.890Z,3.218688
2018-11-05T00:38:39.423Z,3.218688
2018-11-05T00:38:51.896Z,3.218688
2018-11-05T00:39:04.364Z,1.609344
2018-11-05T00:39:16.859Z,6.437376
2018-11-05T00:39:29.272Z,6.437376
2018-11-05T00:39:41.705Z,6.437376
2018-11-05T00:39:54.199Z,6.437376
2018-11-05T00:40:06.652Z,3.218688
2018-11-05T00:40:19.230Z,3.218688
2018-11-05T00:40:31.700Z,3.218688
2018-11-05T00:40:44.109Z,3.218688
2018-11-05T00:40:56.504Z,3.218688
2018-11-05T00:41:08.935Z,1.609344
2018-11-05T00:41:21.368Z,1.609344
2018-11-05T00:41:33.800Z,1.609344
2018-11-05T00:41:46.284Z,8.04672
2018-11-05T00:41:58.778Z,9.656064
2018-11-05T00:42:11.257Z,8.04672
2018-11-05T00:42:23.662Z,8.04672
2018-11-05T00:42:36.254Z,8.04672
2018-11-05T00:42:48.685Z,8.04672
2018-11-05T00:43:01.150Z,8.04672
2018-11-05T00:43:13.629Z,6.437376
2018-11-05T00:43:26.119Z,8.04672
2018-11-05T00:43:38.582Z,8.04672
2018-11-05T00:43:51.063Z,8.04672
2018-11-05T00:44:03.559Z,8.04672
2018-11-05T00:44:16.004Z,4.828032
2018-11-05T00:44:28.447Z,8.04672
2018-11-05T00:44:40.886Z,9.656064
2018-11-05T00:44:53.352Z,9.656064
2018-11-05T00:45:06.050Z,6.437376
2018-11-05T00:45:18.544Z,6.437376
2018-11-05T00:45:31.489Z,6.437376
2018-11-05T00:45:45.673Z,6.437376
2018-11-05T00:45:59.433Z,8.04672
2018-11-05T00:46:11.892Z,6.437376
2018-11-05T00:46:24.340Z,6.437376
2018-11-05T00:46:36.827Z,6.437376
2018-11-05T00:46:49.367Z,6.437376
2018-11-05T00:47:02.804Z,6.437376
2018-11-05T00:47:15.304Z,6.437376
2018-11-05T00:47:27.834Z,6.437376
2018-11-05T00:47:40.296Z,6.437376
2018-11-05T00:47:52.780Z,6.437376
2018-11-05T00:48:05.304Z,1.609344
2018-11-05T00:48:17.807Z,4.828032
2018-11-05T00:48:30.233Z,6.437376
2018-11-05T00:48:42.643Z,6.437376
2018-11-05T00:48:55.141Z,8.04672
2018-11-05T00:49:07.605Z,8.04672
2018-11-05T00:49:20.072Z,14.484096
2018-11-05T00:49:32.533Z,14.484096
2018-11-05T00:49:45.141Z,14.484096
2018-11-05T00:49:57.663Z,14.484096
2018-11-05T00:50:10.068Z,6.437376
2018-11-05T00:50:22.508Z,8.04672
2018-11-05T00:50:34.967Z,9.656064
2018-11-05T00:50:47.456Z,9.656064
2018-11-05T00:50:59.935Z,9.656064
2018-11-05T00:51:12.411Z,6.437376
2018-11-05T00:51:24.897Z,6.437376
2018-11-05T00:51:37.387Z,6.437376
2018-11-05T00:51:49.979Z,6.437376
2018-11-05T00:52:02.390Z,6.437376
2018-11-05T00:52:15.001Z,3.218688
2018-11-05T00:52:27.555Z,6.437376
2018-11-05T00:52:40.022Z,6.437376
2018-11-05T00:52:52.470Z,9.656064
2018-11-05T00:53:04.922Z,6.437376
2018-11-05T00:53:17.364Z,6.437376
2018-11-05T00:53:29.818Z,6.437376
2018-11-05T00:53:42.353Z,6.437376
2018-11-05T00:53:54.801Z,6.437376
2018-11-05T00:54:07.225Z,1.609344
2018-11-05T00:54:19.781Z,3.218688
2018-11-05T00:54:32.302Z,8.04672
2018-11-05T00:54:44.763Z,8.04672
2018-11-05T00:54:57.151Z,8.04672
2018-11-05T00:55:09.559Z,3.218688
2018-11-05T00:55:21.956Z,3.218688
2018-11-05T00:55:34.641Z,3.218688
2018-11-05T00:55:47.601Z,4.828032
2018-11-05T00:56:00.558Z,6.437376
2018-11-05T00:56:13.007Z,3.218688
2018-11-05T00:56:26.603Z,9.656064
2018-11-05T00:56:39.796Z,9.656064
2018-11-05T00:56:52.344Z,9.656064
2018-11-05T00:57:04.837Z,1.609344
2018-11-05T00:57:17.305Z,6.437376
2018-11-05T00:57:29.786Z,6.437376
2018-11-05T00:57:42.211Z,6.437376
2018-11-05T00:57:54.666Z,6.437376
2018-11-05T00:58:07.129Z,1.609344
2018-11-05T00:58:19.590Z,1.609344
2018-11-05T00:58:32.589Z,3.218688
2018-11-05T00:58:45.107Z,3.218688
2018-11-05T00:58:57.597Z,8.04672
2018-11-05T00:59:10.090Z,8.04672
2018-11-05T00:59:22.562Z,9.656064
2018-11-05T00:59:35.026Z,11.265408
2018-11-05T00:59:47.483Z,11.265408
2018-11-05T00:59:59.949Z,11.265408
2018-11-05T01:00:12.475Z,9.656064
2018-11-05T01:00:25.000Z,9.656064
2018-11-05T01:00:37.627Z,9.656064
2018-11-05T01:00:50.117Z,9.656064
2018-11-05T01:01:02.690Z,9.656064
2018-11-05T01:01:15.137Z,8.04672
2018-11-05T01:01:27.605Z,8.04672
2018-11-05T01:01:40.547Z,8.04672
2018-11-05T01:01:53.767Z,8.04672
2018-11-05T01:02:06.295Z,8.04672
2018-11-05T01:02:19.792Z,8.04672
2018-11-05T01:02:32.445Z,9.656064
2018-11-05T01:02:44.960Z,9.656064
2018-11-05T01:02:57.455Z,9.656064
2018-11-05T01:03:10.041Z,8.04672
2018-11-05T01:03:22.505Z,8.04672
2018-11-05T01:03:34.904Z,8.04672
2018-11-05T01:03:47.324Z,8.04672
2018-11-05T01:03:59.750Z,8.04672
2018-11-05T01:04:12.843Z,6.437376
2018-11-05T01:04:25.407Z,6.437376
2018-11-05T01:04:38.015Z,9.656064
2018-11-05T01:04:50.513Z,9.656064
2018-11-05T01:05:02.919Z,9.656064
2018-11-05T01:05:15.404Z,9.656064
2018-11-05T01:05:27.872Z,9.656064
2018-11-05T01:05:40.295Z,9.656064
2018-11-05T01:05:52.774Z,11.265408
2018-11-05T01:06:05.256Z,3.218688
2018-11-05T01:06:17.744Z,6.437376
2018-11-05T01:06:30.429Z,6.437376
2018-11-05T01:06:42.892Z,6.437376
2018-11-05T01:06:55.345Z,6.437376
2018-11-05T01:07:07.728Z,9.656064
2018-11-05T01:07:20.282Z,9.656064
2018-11-05T01:07:32.708Z,9.656064
2018-11-05T01:07:45.158Z,9.656064
2018-11-05T01:07:57.591Z,9.656064
2018-11-05T01:08:10.087Z,4.828032
2018-11-05T01:08:22.560Z,8.04672
2018-11-05T01:08:35.049Z,8.04672
2018-11-05T01:08:47.532Z,9.656064
2018-11-05T01:09:00.163Z,9.656064
2018-11-05T01:09:12.663Z,6.437376
2018-11-05T01:09:25.126Z,8.04672
2018-11-05T01:09:37.605Z,8.04672
2018-11-05T01:09:50.067Z,8.04672
2018-11-05T01:10:02.534Z,8.04672
2018-11-05T01:10:14.973Z,4.828032
2018-11-05T01:10:27.393Z,4.828032
2018-11-05T01:10:39.827Z,4.828032
2018-11-05T01:10:52.223Z,6.437376
2018-11-05T01:11:04.642Z,3.218688
2018-11-05T01:11:17.113Z,3.218688
2018-11-05T01:11:29.525Z,4.828032
2018-11-05T01:11:41.966Z,6.437376
2018-11-05T01:11:54.382Z,6.437376
2018-11-05T01:12:06.776Z,4.828032
2018-11-05T01:12:19.233Z,4.828032
2018-11-05T01:12:31.723Z,4.828032
2018-11-05T01:12:44.192Z,6.437376
2018-11-05T01:12:56.682Z,6.437376
2018-11-05T01:13:09.163Z,1.609344
2018-11-05T01:13:21.630Z,1.609344
2018-11-05T01:13:34.129Z,6.437376
2018-11-05T01:13:46.527Z,8.04672
2018-11-05T01:13:59.132Z,8.04672
2018-11-05T01:14:11.579Z,3.218688
2018-11-05T01:14:24.005Z,3.218688
2018-11-05T01:14:36.564Z,3.218688
2018-11-05T01:14:49.028Z,3.218688
2018-11-05T01:15:01.419Z,3.218688
2018-11-05T01:15:13.868Z,3.218688
2018-11-05T01:15:26.487Z,3.218688
2018-11-05T01:15:38.920Z,3.218688
2018-11-05T01:15:51.605Z,4.828032
2018-11-05T01:16:04.062Z,4.828032
2018-11-05T01:16:16.531Z,3.218688
2018-11-05T01:16:28.999Z,6.437376
2018-11-05T01:16:41.443Z,8.04672
2018-11-05T01:16:53.843Z,8.04672
2018-11-05T01:17:06.270Z,6.437376
2018-11-05T01:17:18.672Z,9.656064
2018-11-05T01:17:31.088Z,9.656064
2018-11-05T01:17:43.471Z,9.656064
2018-11-05T01:17:55.908Z,9.656064
2018-11-05T01:18:08.466Z,4.828032
2018-11-05T01:18:21.008Z,4.828032
2018-11-05T01:18:33.416Z,9.656064
2018-11-05T01:18:45.833Z,9.656064
2018-11-05T01:18:58.257Z,9.656064
2018-11-05T01:19:10.703Z,3.218688
2018-11-05T01:19:23.124Z,3.218688
2018-11-05T01:19:35.549Z,3.218688
2018-11-05T01:19:48.050Z,3.218688
2018-11-05T01:20:00.524Z,3.218688
2018-11-05T01:20:12.978Z,3.218688
2018-11-05T01:20:25.409Z,3.218688
2018-11-05T01:20:37.851Z,6.437376
2018-11-05T01:20:50.335Z,8.04672
2018-11-05T01:21:02.747Z,8.04672
2018-11-05T01:21:15.160Z,3.218688
2018-11-05T01:21:27.578Z,3.218688
2018-11-05T01:21:40.020Z,4.828032
2018-11-05T01:21:52.492Z,4.828032
2018-11-05T01:22:04.913Z,1.609344
2018-11-05T01:22:17.423Z,1.609344
2018-11-05T01:22:29.824Z,3.218688
2018-11-05T01:22:42.240Z,3.218688
2018-11-05T01:22:54.649Z,3.218688
2018-11-05T01:23:07.098Z,1.609344
2018-11-05T01:23:19.811Z,3.218688
2018-11-05T01:23:32.375Z,3.218688
2018-11-05T01:23:44.804Z,3.218688
2018-11-05T01:23:57.207Z,3.218688
2018-11-05T01:24:09.648Z,3.218688
2018-11-05T01:24:22.135Z,6.437376
2018-11-05T01:24:34.700Z,6.437376
2018-11-05T01:24:47.167Z,8.04672
2018-11-05T01:24:59.594Z,8.04672
2018-11-05T01:25:12.170Z,8.04672
2018-11-05T01:25:24.590Z,8.04672
2018-11-05T01:25:36.984Z,8.04672
2018-11-05T01:25:49.423Z,8.04672
2018-11-05T01:26:01.850Z,8.04672
2018-11-05T01:26:14.393Z,3.218688
2018-11-05T01:26:26.827Z,3.218688
2018-11-05T01:26:39.317Z,3.218688
2018-11-05T01:26:51.799Z,3.218688
2018-11-05T01:27:04.231Z,6.437376
2018-11-05T01:27:16.654Z,6.437376
2018-11-05T01:27:29.139Z,6.437376
2018-11-05T01:27:41.586Z,6.437376
2018-11-05T01:27:54.091Z,6.437376
2018-11-05T01:28:06.665Z,6.437376
2018-11-05T01:28:19.310Z,9.656064
2018-11-05T01:28:31.748Z,9.656064
2018-11-05T01:28:44.143Z,9.656064
2018-11-05T01:28:56.604Z,9.656064
2018-11-05T01:29:09.064Z,3.218688
2018-11-05T01:29:21.562Z,3.218688
2018-11-05T01:29:34.023Z,3.218688
2018-11-05T01:29:46.491Z,3.218688
2018-11-05T01:29:58.896Z,3.218688
2018-11-05T01:30:11.462Z,1.609344
2018-11-05T01:30:23.925Z,1.609344
2018-11-05T01:30:36.406Z,1.609344
2018-11-05T01:30:48.898Z,3.218688
2018-11-05T01:31:01.387Z,3.218688
2018-11-05T01:31:13.821Z,1.609344
2018-11-05T01:31:26.303Z,1.609344
2018-11-05T01:31:38.773Z,3.218688
2018-11-05T01:31:51.274Z,6.437376
2018-11-05T01:32:03.774Z,6.437376
2018-11-05T01:32:16.231Z,3.218688
2018-11-05T01:32:28.707Z,3.218688
2018-11-05T01:32:41.114Z,3.218688
2018-11-05T01:32:53.563Z,4.828032
2018-11-05T01:33:06.219Z,1.609344
2018-11-05T01:33:18.665Z,1.609344
2018-11-05T01:33:31.158Z,1.609344
2018-11-05T01:33:43.591Z,1.609344
2018-11-05T01:33:56.037Z,3.218688
2018-11-05T01:34:08.530Z,4.828032
2018-11-05T01:34:20.949Z,9.656064
2018-11-05T01:34:33.359Z,9.656064
2018-11-05T01:34:45.851Z,9.656064
2018-11-05T01:34:58.265Z,9.656064
2018-11-05T01:35:10.684Z,9.656064
2018-11-05T01:35:23.113Z,9.656064
2018-11-05T01:35:35.565Z,9.656064
2018-11-05T01:35:48.020Z,9.656064
2018-11-05T01:36:00.494Z,9.656064
2018-11-05T01:36:12.982Z,8.04672
2018-11-05T01:36:25.484Z,8.04672
2018-11-05T01:36:37.905Z,8.04672
2018-11-05T01:36:50.293Z,8.04672
2018-11-05T01:37:03.106Z,8.04672
2018-11-05T01:37:16.850Z,8.04672
2018-11-05T01:37:30.268Z,8.04672
2018-11-05T01:37:42.767Z,9.656064
2018-11-05T01:37:55.268Z,9.656064
2018-11-05T01:38:07.777Z,6.437376
2018-11-05T01:38:20.228Z,6.437376
2018-11-05T01:38:32.760Z,6.437376
2018-11-05T01:38:45.233Z,6.437376
2018-11-05T01:38:57.754Z,8.04672
2018-11-05T01:39:10.229Z,8.04672
2018-11-05T01:39:22.629Z,8.04672
2018-11-05T01:39:35.007Z,8.04672
2018-11-05T01:39:47.393Z,8.04672
2018-11-05T01:39:59.783Z,8.04672
2018-11-05T01:40:12.372Z,6.437376
2018-11-05T01:40:24.856Z,6.437376
2018-11-05T01:40:37.300Z,6.437376
2018-11-05T01:40:49.720Z,6.437376
2018-11-05T01:41:02.183Z,6.437376
2018-11-05T01:41:14.671Z,1.609344
2018-11-05T01:41:27.157Z,1.609344
2018-11-05T01:41:39.612Z,1.609344
2018-11-05T01:41:52.083Z,1.609344
2018-11-05T01:42:04.574Z,1.609344
2018-11-05T01:42:17.082Z,1.609344
2018-11-05T01:42:29.553Z,3.218688
2018-11-05T01:42:42.079Z,4.828032
2018-11-05T01:42:54.553Z,4.828032
2018-11-05T01:43:07.015Z,3.218688
2018-11-05T01:43:19.446Z,3.218688
2018-11-05T01:43:31.912Z,3.218688
2018-11-05T01:43:44.422Z,8.04672
2018-11-05T01:43:56.866Z,8.04672
2018-11-05T01:44:09.342Z,8.04672
2018-11-05T01:44:21.747Z,8.04672
2018-11-05T01:44:34.152Z,8.04672
2018-11-05T01:44:46.635Z,8.04672
2018-11-05T01:44:59.126Z,8.04672
2018-11-05T01:45:11.668Z,4.828032
2018-11-05T01:45:24.099Z,4.828032
2018-11-05T01:45:36.521Z,4.828032
2018-11-05T01:45:48.995Z,6.437376
2018-11-05T01:46:01.450Z,6.437376
2018-11-05T01:46:13.918Z,6.437376
2018-11-05T01:46:26.497Z,8.04672
2018-11-05T01:46:38.964Z,8.04672
2018-11-05T01:46:51.579Z,8.04672
2018-11-05T01:47:04.049Z,8.04672
2018-11-05T01:47:16.559Z,8.04672
2018-11-05T01:47:29.113Z,8.04672
2018-11-05T01:47:41.574Z,9.656064
2018-11-05T01:47:54.041Z,9.656064
2018-11-05T01:48:06.500Z,1.609344
2018-11-05T01:48:18.880Z,1.609344
2018-11-05T01:48:31.292Z,3.218688
2018-11-05T01:48:43.689Z,6.437376
2018-11-05T01:48:56.126Z,6.437376
2018-11-05T01:49:08.574Z,9.656064
2018-11-05T01:49:21.044Z,11.265408
2018-11-05T01:49:33.507Z,11.265408
2018-11-05T01:49:46.134Z,11.265408
2018-11-05T01:49:58.526Z,11.265408
2018-11-05T01:50:10.959Z,3.218688
2018-11-05T01:50:23.429Z,9.656064
2018-11-05T01:50:35.894Z,9.656064
2018-11-05T01:50:48.359Z,9.656064
2018-11-05T01:51:00.782Z,9.656064
2018-11-05T01:51:13.179Z,1.609344
2018-11-05T01:51:25.591Z,3.218688
2018-11-05T01:51:38.071Z,3.218688
2018-11-05T01:51:50.760Z,3.218688
2018-11-05T01:52:03.165Z,4.828032
2018-11-05T01:52:15.719Z,8.04672
2018-11-05T01:52:28.190Z,8.04672
2018-11-05T01:52:40.580Z,8.04672
2018-11-05T01:52:53.009Z,8.04672
2018-11-05T01:53:05.478Z,8.04672
2018-11-05T01:53:17.962Z,9.656064
2018-11-05T01:53:30.453Z,9.656064
2018-11-05T01:53:42.963Z,9.656064
2018-11-05T01:53:55.565Z,9.656064
2018-11-05T01:54:07.988Z,9.656064
2018-11-05T01:54:20.468Z,9.656064
2018-11-05T01:54:32.940Z,9.656064
2018-11-05T01:54:45.378Z,9.656064
2018-11-05T01:54:57.790Z,9.656064
2018-11-05T01:55:10.224Z,4.828032
2018-11-05T01:55:22.638Z,4.828032
2018-11-05T01:55:35.071Z,4.828032
2018-11-05T01:55:47.490Z,4.828032
2018-11-05T01:56:00.180Z,4.828032
2018-11-05T01:56:12.805Z,3.218688
2018-11-05T01:56:25.273Z,8.04672
2018-11-05T01:56:37.925Z,8.04672
2018-11-05T01:56:50.408Z,8.04672
2018-11-05T01:57:02.839Z,8.04672
2018-11-05T01:57:15.330Z,3.218688
2018-11-05T01:57:27.793Z,3.218688
2018-11-05T01:57:40.207Z,3.218688
2018-11-05T01:57:52.688Z,3.218688
2018-11-05T01:58:05.146Z,1.609344
2018-11-05T01:58:17.558Z,1.609344
2018-11-05T01:58:29.976Z,1.609344
2018-11-05T01:58:42.384Z,1.609344
2018-11-05T01:58:54.781Z,6.437376
2018-11-05T01:59:07.164Z,4.828032
2018-11-05T01:59:19.553Z,8.04672
2018-11-05T01:59:31.964Z,8.04672
2018-11-05T01:59:44.701Z,9.656064
2018-11-05T01:59:57.178Z,9.656064
2018-11-05T02:00:09.640Z,9.656064
2018-11-05T02:00:22.134Z,9.656064
2018-11-05T02:00:34.623Z,9.656064
2018-11-05T02:00:47.131Z,9.656064
2018-11-05T02:00:59.644Z,9.656064
2018-11-05T02:01:12.201Z,6.437376
2018-11-05T02:01:24.701Z,6.437376
2018-11-05T02:01:37.143Z,6.437376
2018-11-05T02:01:49.549Z,6.437376
2018-11-05T02:02:02.030Z,6.437376
2018-11-05T02:02:14.520Z,3.218688
2018-11-05T02:02:26.953Z,4.828032
2018-11-05T02:02:39.493Z,4.828032
2018-11-05T02:02:51.967Z,4.828032
2018-11-05T02:03:04.434Z,3.218688
2018-11-05T02:03:16.908Z,3.218688
2018-11-05T02:03:29.415Z,3.218688
2018-11-05T02:03:41.889Z,6.437376
2018-11-05T02:03:54.325Z,8.04672
2018-11-05T02:04:06.822Z,3.218688
2018-11-05T02:04:19.229Z,4.828032
2018-11-05T02:04:31.624Z,8.04672
2018-11-05T02:04:44.180Z,11.265408
2018-11-05T02:04:56.651Z,11.265408
2018-11-05T02:05:09.126Z,6.437376
2018-11-05T02:05:21.598Z,6.437376
2018-11-05T02:05:34.086Z,6.437376
2018-11-05T02:05:46.557Z,6.437376
2018-11-05T02:05:59.040Z,6.437376
2018-11-05T02:06:11.526Z,1.609344
2018-11-05T02:06:24.004Z,4.828032
2018-11-05T02:06:36.472Z,8.04672
2018-11-05T02:06:48.885Z,8.04672
2018-11-05T02:07:01.326Z,8.04672
2018-11-05T02:07:13.861Z,4.828032
2018-11-05T02:07:26.308Z,8.04672
2018-11-05T02:07:38.777Z,11.265408
2018-11-05T02:07:51.223Z,11.265408
2018-11-05T02:08:03.815Z,11.265408
2018-11-05T02:08:16.273Z,6.437376
2018-11-05T02:08:28.892Z,6.437376
2018-11-05T02:08:41.350Z,8.04672
2018-11-05T02:08:53.801Z,8.04672
2018-11-05T02:09:06.374Z,3.218688
2018-11-05T02:09:18.870Z,6.437376
2018-11-05T02:09:31.334Z,6.437376
2018-11-05T02:09:43.756Z,6.437376
2018-11-05T02:09:56.158Z,6.437376
2018-11-05T02:10:08.897Z,1.609344
2018-11-05T02:10:22.658Z,1.609344
2018-11-05T02:10:36.571Z,1.609344
2018-11-05T02:10:48.982Z,1.609344
2018-11-05T02:11:01.388Z,1.609344
2018-11-05T02:11:13.806Z,3.218688
2018-11-05T02:11:26.352Z,3.218688
2018-11-05T02:11:38.790Z,3.218688
2018-11-05T02:11:51.181Z,3.218688
2018-11-05T02:12:03.596Z,3.218688
2018-11-05T02:12:15.982Z,3.218688
2018-11-05T02:12:28.374Z,3.218688
2018-11-05T02:12:40.851Z,3.218688
2018-11-05T02:12:53.315Z,4.828032
2018-11-05T02:13:05.880Z,3.218688
2018-11-05T02:13:19.188Z,3.218688
2018-11-05T02:13:33.601Z,3.218688
2018-11-05T02:13:46.148Z,3.218688
2018-11-05T02:13:58.775Z,3.218688
2018-11-05T02:14:11.238Z,1.609344
2018-11-05T02:14:23.625Z,1.609344
2018-11-05T02:14:36.041Z,1.609344
2018-11-05T02:14:48.556Z,1.609344
2018-11-05T02:15:01.014Z,1.609344
2018-11-05T02:15:13.457Z,0
2018-11-05T02:15:26.039Z,0
2018-11-05T02:15:38.516Z,0
2018-11-05T02:15:51.218Z,0
2018-11-05T02:16:04.497Z,1.609344
2018-11-05T02:16:18.640Z,3.218688
2018-11-05T02:16:31.033Z,3.218688
2018-11-05T02:16:43.455Z,3.218688
2018-11-05T02:16:55.875Z,3.218688
2018-11-05T02:17:08.363Z,1.609344
2018-11-05T02:17:20.790Z,3.218688
2018-11-05T02:17:33.199Z,3.218688
2018-11-05T02:17:45.672Z,4.828032
2018-11-05T02:17:58.096Z,6.437376
2018-11-05T02:18:10.692Z,8.04672
2018-11-05T02:18:23.238Z,8.04672
2018-11-05T02:18:35.727Z,8.04672
2018-11-05T02:18:48.182Z,9.656064
2018-11-05T02:19:00.634Z,9.656064
2018-11-05T02:19:13.032Z,3.218688
2018-11-05T02:19:25.423Z,4.828032
2018-11-05T02:19:37.878Z,6.437376
2018-11-05T02:19:50.286Z,6.437376
2018-11-05T02:20:02.726Z,6.437376
2018-11-05T02:20:15.222Z,3.218688
2018-11-05T02:20:27.717Z,9.656064
2018-11-05T02:20:40.166Z,9.656064
2018-11-05T02:20:52.637Z,9.656064
2018-11-05T02:21:05.138Z,6.437376
2018-11-05T02:21:17.573Z,8.04672
2018-11-05T02:21:30.051Z,8.04672
2018-11-05T02:21:42.511Z,8.04672
2018-11-05T02:21:54.896Z,8.04672
2018-11-05T02:22:07.431Z,4.828032
2018-11-05T02:22:19.847Z,8.04672
2018-11-05T02:22:32.258Z,8.04672
2018-11-05T02:22:44.746Z,8.04672
2018-11-05T02:22:57.200Z,8.04672
2018-11-05T02:23:09.633Z,1.609344
2018-11-05T02:23:22.099Z,1.609344
2018-11-05T02:23:34.566Z,3.218688
2018-11-05T02:23:47.023Z,3.218688
2018-11-05T02:23:59.464Z,3.218688
2018-11-05T02:24:11.964Z,3.218688
2018-11-05T02:24:24.350Z,6.437376
2018-11-05T02:24:36.874Z,6.437376
2018-11-05T02:24:49.389Z,6.437376
2018-11-05T02:25:01.911Z,6.437376
2018-11-05T02:25:14.405Z,3.218688
2018-11-05T02:25:26.898Z,8.04672
2018-11-05T02:25:39.344Z,8.04672
2018-11-05T02:25:51.809Z,8.04672
2018-11-05T02:26:04.292Z,6.437376
2018-11-05T02:26:16.846Z,8.04672
2018-11-05T02:26:29.239Z,8.04672
2018-11-05T02:26:41.650Z,8.04672
2018-11-05T02:26:54.088Z,8.04672
2018-11-05T02:27:07.062Z,1.609344
2018-11-05T02:27:21.043Z,1.609344
2018-11-05T02:27:34.561Z,1.609344
2018-11-05T02:27:47.073Z,3.218688
2018-11-05T02:27:59.698Z,3.218688